Time;durP1;ratioP1;P1;durP2;ratioP2;P2;SDS_P1;SDS_P2;PMS_P1;PMS_P2;Temp;Humidity;BMP_temperature;BMP_pressure;BME280_temperature;BME280_humidity;BME280_pressure;Samples;Min_cycle;Max_cycle;Signal;HPM_P1;HPM_P2
2023/08/25 00:02:15;;;;;;;;;;;24.80;58.70;;;;;;5035046;28;19913;-67
2023/08/25 00:04:41;;;;;;;;;;;24.90;58.60;;;;;;5031116;28;19914;-68
2023/08/25 00:07:07;;;;;;;;;;;24.90;58.60;;;;;;5015566;28;20384;-67
2023/08/25 00:09:32;;;;;;;;;;;25.00;58.50;;;;;;5014689;28;20313;-67
2023/08/25 00:11:58;;;;;;;;;;;25.00;58.40;;;;;;5025237;28;20246;-66
2023/08/25 00:14:23;;;;;;;;;;;25.00;58.30;;;;;;5034647;28;20266;-67
2023/08/25 00:16:49;;;;;;;;;;;25.00;58.20;;;;;;5029110;28;19987;-67
2023/08/25 00:19:17;;;;;;;;;;;25.10;58.10;;;;;;5034830;28;19913;-67
2023/08/25 00:21:42;;;;;;;;;;;25.10;58.00;;;;;;5033261;28;20020;-67
2023/08/25 00:24:08;;;;;;;;;;;25.10;57.90;;;;;;5026001;28;20032;-67
2023/08/25 00:26:33;;;;;;;;;;;25.20;57.80;;;;;;5019507;28;19917;-67
2023/08/25 00:28:59;;;;;;;;;;;25.20;57.70;;;;;;5019911;28;19939;-67
2023/08/25 00:31:24;;;;;;;;;;;25.20;57.70;;;;;;5034606;28;19914;-66
2023/08/25 00:33:50;;;;;;;;;;;25.20;57.60;;;;;;5034391;28;19913;-67
2023/08/25 00:36:16;;;;;;;;;;;25.30;57.60;;;;;;5033583;28;20368;-67
2023/08/25 00:38:41;;;;;;;;;;;25.30;57.50;;;;;;5034387;28;19913;-67
2023/08/25 00:41:07;;;;;;;;;;;25.30;57.40;;;;;;5028577;28;19913;-67
2023/08/25 00:43:33;;;;;;;;;;;25.30;57.30;;;;;;5014423;28;19918;-67
2023/08/25 00:45:59;;;;;;;;;;;25.30;57.30;;;;;;5029537;28;19966;-67
2023/08/25 00:48:25;;;;;;;;;;;25.30;57.20;;;;;;5034004;28;19914;-67
2023/08/25 00:50:51;;;;;;;;;;;25.30;57.30;;;;;;5031587;28;19924;-67
2023/08/25 00:53:17;;;;;;;;;;;25.30;57.20;;;;;;5032402;28;19950;-67
2023/08/25 00:55:42;;;;;;;;;;;25.30;57.20;;;;;;5033505;28;20352;-68
2023/08/25 00:58:09;;;;;;;;;;;25.40;57.10;;;;;;5034263;28;19913;-67
2023/08/25 01:00:35;;;;;;;;;;;25.40;57.00;;;;;;5033740;28;19983;-67
2023/08/25 01:03:01;;;;;;;;;;;25.40;56.90;;;;;;5034273;28;20357;-67
2023/08/25 01:05:26;;;;;;;;;;;25.40;56.60;;;;;;5030799;28;20008;-67
2023/08/25 01:07:52;;;;;;;;;;;25.50;56.50;;;;;;5034499;28;20344;-67
2023/08/25 01:10:20;;;;;;;;;;;25.50;56.30;;;;;;5033766;28;20004;-68
2023/08/25 01:12:52;;;;;;;;;;;25.60;55.90;;;;;;5018206;28;19960;-67
2023/08/25 01:15:22;;;;;;;;;;;25.70;55.50;;;;;;5014020;28;20411;-67
2023/08/25 01:17:55;;;;;;;;;;;25.70;55.30;;;;;;5014373;28;20369;-67
2023/08/25 01:20:22;;;;;;;;;;;25.70;55.00;;;;;;5013878;28;19921;-67
2023/08/25 01:23:02;;;;;;;;;;;25.70;54.80;;;;;;5015791;28;19998;-67
2023/08/25 01:25:29;;;;;;;;;;;25.60;54.60;;;;;;5033674;28;20016;-67
2023/08/25 01:27:55;;;;;;;;;;;25.50;54.60;;;;;;5034227;28;19956;-67
2023/08/25 01:30:23;;;;;;;;;;;25.50;54.50;;;;;;5032053;28;19913;-67
2023/08/25 01:32:49;;;;;;;;;;;25.30;54.50;;;;;;5030288;28;19960;-68
2023/08/25 01:35:15;;;;;;;;;;;25.20;54.50;;;;;;5018854;28;20330;-67
2023/08/25 01:37:50;;;;;;;;;;;25.20;54.60;;;;;;5031939;28;20372;-67
2023/08/25 01:40:20;;;;;;;;;;;25.10;54.60;;;;;;5032482;28;19971;-67
2023/08/25 01:42:46;;;;;;;;;;;25.00;54.70;;;;;;5033618;28;20356;-75
2023/08/25 01:45:12;;;;;;;;;;;24.90;54.80;;;;;;5033091;28;19913;-75
2023/08/25 01:47:38;;;;;;;;;;;24.80;54.80;;;;;;5033439;28;20011;-76
2023/08/25 01:50:05;;;;;;;;;;;24.70;54.80;;;;;;5032902;28;19996;-75
2023/08/25 01:52:30;;;;;;;;;;;24.70;54.90;;;;;;5033427;28;20012;-74
2023/08/25 01:54:56;;;;;;;;;;;24.60;55.10;;;;;;5033007;28;19960;-75
2023/08/25 01:57:21;;;;;;;;;;;24.60;55.10;;;;;;5033347;28;19920;-75
2023/08/25 01:59:47;;;;;;;;;;;24.50;55.40;;;;;;5016205;28;19913;-75
2023/08/25 02:02:12;;;;;;;;;;;24.50;55.40;;;;;;5013383;28;19913;-75
2023/08/25 02:04:37;;;;;;;;;;;24.40;55.40;;;;;;5013014;28;19921;-75
2023/08/25 02:07:03;;;;;;;;;;;24.30;55.30;;;;;;5013628;28;19913;-75
2023/08/25 02:09:28;;;;;;;;;;;24.20;55.40;;;;;;5012845;28;19918;-74
2023/08/25 02:11:54;;;;;;;;;;;24.20;55.50;;;;;;5021999;28;19913;-75
2023/08/25 02:14:19;;;;;;;;;;;24.10;55.70;;;;;;5032612;28;19913;-75
2023/08/25 02:16:45;;;;;;;;;;;24.00;55.70;;;;;;5032465;28;19917;-75
2023/08/25 02:19:10;;;;;;;;;;;24.00;55.70;;;;;;5023690;28;19914;-75
2023/08/25 02:21:35;;;;;;;;;;;23.90;55.70;;;;;;5011501;28;20060;-74
2023/08/25 02:24:01;;;;;;;;;;;23.80;55.80;;;;;;5012579;28;19925;-74
2023/08/25 02:26:26;;;;;;;;;;;23.70;56.40;;;;;;5025491;28;19913;-74
2023/08/25 02:28:52;;;;;;;;;;;23.70;56.40;;;;;;5032263;28;19914;-75
2023/08/25 02:31:17;;;;;;;;;;;23.70;56.30;;;;;;5032364;28;19920;-76
2023/08/25 02:33:43;;;;;;;;;;;23.60;56.40;;;;;;5030951;28;19917;-75
2023/08/25 02:36:09;;;;;;;;;;;23.50;56.50;;;;;;5018439;28;20074;-74
2023/08/25 02:38:35;;;;;;;;;;;23.40;56.60;;;;;;5012689;28;20341;-74
2023/08/25 02:41:00;;;;;;;;;;;23.40;56.80;;;;;;5020874;28;20277;-73
2023/08/25 02:43:26;;;;;;;;;;;23.40;56.80;;;;;;5030696;28;19917;-75
2023/08/25 02:45:51;;;;;;;;;;;23.30;56.80;;;;;;5031793;28;20215;-76
2023/08/25 02:48:17;;;;;;;;;;;23.20;56.80;;;;;;5030504;28;20186;-74
2023/08/25 02:50:43;;;;;;;;;;;23.20;56.90;;;;;;5031399;28;19916;-75
2023/08/25 02:53:08;;;;;;;;;;;23.20;56.90;;;;;;5031637;28;19913;-67
2023/08/25 02:55:33;;;;;;;;;;;23.10;56.90;;;;;;5030916;28;19921;-67
2023/08/25 02:57:59;;;;;;;;;;;23.00;56.90;;;;;;5032441;28;20323;-67
2023/08/25 03:00:24;;;;;;;;;;;23.00;57.10;;;;;;5031823;28;20415;-67
2023/08/25 03:02:50;;;;;;;;;;;23.00;57.30;;;;;;5029100;28;19921;-66
2023/08/25 03:05:16;;;;;;;;;;;22.90;57.90;;;;;;5029619;28;19921;-66
2023/08/25 03:07:41;;;;;;;;;;;22.90;58.00;;;;;;5032150;28;19956;-66
2023/08/25 03:10:10;;;;;;;;;;;22.80;58.20;;;;;;5031482;28;19913;-67
2023/08/25 03:12:35;;;;;;;;;;;22.80;58.30;;;;;;5029234;28;19963;-67
2023/08/25 03:15:01;;;;;;;;;;;22.80;58.30;;;;;;5030322;28;19956;-67
2023/08/25 03:17:26;;;;;;;;;;;22.80;58.20;;;;;;5032000;28;19913;-67
2023/08/25 03:19:52;;;;;;;;;;;22.70;58.20;;;;;;5031295;28;20448;-68
2023/08/25 03:22:17;;;;;;;;;;;22.80;58.30;;;;;;5031936;28;20319;-67
2023/08/25 03:24:43;;;;;;;;;;;22.70;58.30;;;;;;5031116;28;20365;-67
2023/08/25 03:27:08;;;;;;;;;;;22.70;58.20;;;;;;5030486;28;20031;-68
2023/08/25 03:29:34;;;;;;;;;;;22.60;58.10;;;;;;5030802;28;19913;-67
2023/08/25 03:32:00;;;;;;;;;;;22.60;58.20;;;;;;5031770;28;19913;-67
2023/08/25 03:34:25;;;;;;;;;;;22.50;58.10;;;;;;5031345;28;19913;-68
2023/08/25 03:36:51;;;;;;;;;;;22.50;58.40;;;;;;5030289;28;20399;-67
2023/08/25 03:39:16;;;;;;;;;;;22.40;58.50;;;;;;5031294;28;20029;-67
2023/08/25 03:41:42;;;;;;;;;;;22.40;58.40;;;;;;5030221;28;19913;-67
2023/08/25 03:44:07;;;;;;;;;;;22.30;58.50;;;;;;5031261;28;20028;-67
2023/08/25 03:46:33;;;;;;;;;;;22.30;58.70;;;;;;5031277;28;19917;-67
2023/08/25 03:48:58;;;;;;;;;;;22.30;58.70;;;;;;5030952;28;20368;-67
2023/08/25 03:51:24;;;;;;;;;;;22.30;58.70;;;;;;5031419;28;19917;-67
2023/08/25 03:53:49;;;;;;;;;;;22.20;58.90;;;;;;5028450;28;19914;-67
2023/08/25 03:56:15;;;;;;;;;;;22.20;59.00;;;;;;5030546;28;19913;-65
2023/08/25 03:58:40;;;;;;;;;;;22.20;59.00;;;;;;5031158;28;19963;-67
2023/08/25 04:01:05;;;;;;;;;;;22.10;59.10;;;;;;5029435;28;19913;-74
2023/08/25 04:03:31;;;;;;;;;;;22.10;59.10;;;;;;5031100;28;19917;-74
2023/08/25 04:05:56;;;;;;;;;;;22.00;59.10;;;;;;5031269;28;19964;-74
2023/08/25 04:08:22;;;;;;;;;;;22.00;59.10;;;;;;5031083;28;19913;-75
2023/08/25 04:10:48;;;;;;;;;;;22.00;59.20;;;;;;5029525;28;19921;-74
2023/08/25 04:13:13;;;;;;;;;;;21.90;59.20;;;;;;5031088;28;19955;-74
2023/08/25 04:15:39;;;;;;;;;;;21.90;59.20;;;;;;5031104;28;19957;-75
2023/08/25 04:18:05;;;;;;;;;;;21.90;59.30;;;;;;5031004;28;19921;-73
2023/08/25 04:20:30;;;;;;;;;;;21.80;59.30;;;;;;5031017;28;19913;-75
2023/08/25 04:22:56;;;;;;;;;;;21.80;59.30;;;;;;5031125;28;19925;-73
2023/08/25 04:25:21;;;;;;;;;;;21.80;59.40;;;;;;5029632;28;19939;-74
2023/08/25 04:27:47;;;;;;;;;;;21.80;59.50;;;;;;5030891;28;19917;-74
2023/08/25 04:30:12;;;;;;;;;;;21.80;59.60;;;;;;5030110;28;20364;-74
2023/08/25 04:32:38;;;;;;;;;;;21.80;59.60;;;;;;5031265;28;19999;-74
2023/08/25 04:35:03;;;;;;;;;;;21.80;59.60;;;;;;5030932;28;19913;-74
2023/08/25 04:37:29;;;;;;;;;;;21.80;59.60;;;;;;5031130;28;19913;-74
2023/08/25 04:39:55;;;;;;;;;;;21.90;59.70;;;;;;5032496;28;20000;-74
2023/08/25 04:42:21;;;;;;;;;;;21.90;59.80;;;;;;5034290;28;20395;-75
2023/08/25 04:44:47;;;;;;;;;;;22.00;60.30;;;;;;5034152;28;19920;-75
2023/08/25 04:47:13;;;;;;;;;;;22.00;60.30;;;;;;5034671;28;20292;-74
2023/08/25 04:49:38;;;;;;;;;;;22.10;60.40;;;;;;5034162;28;20403;-75
2023/08/25 04:52:04;;;;;;;;;;;22.20;60.50;;;;;;5034508;28;19920;-74
2023/08/25 04:54:29;;;;;;;;;;;22.20;60.60;;;;;;5034517;28;19913;-74
2023/08/25 04:56:55;;;;;;;;;;;22.40;60.90;;;;;;5033455;28;19917;-74
2023/08/25 04:59:20;;;;;;;;;;;22.50;60.90;;;;;;5034293;28;20365;-75
2023/08/25 05:01:45;;;;;;;;;;;22.70;60.90;;;;;;5034281;28;19913;-76
2023/08/25 05:04:11;;;;;;;;;;;22.90;61.00;;;;;;5034134;28;19917;-75
2023/08/25 05:06:37;;;;;;;;;;;23.00;61.00;;;;;;5034395;28;19913;-76
2023/08/25 05:09:03;;;;;;;;;;;23.20;61.10;;;;;;5034056;28;20471;-73
2023/08/25 05:11:29;;;;;;;;;;;23.40;61.20;;;;;;5034082;28;20428;-72
2023/08/25 05:13:54;;;;;;;;;;;23.70;61.20;;;;;;5034099;28;19913;-73
2023/08/25 05:16:20;;;;;;;;;;;23.90;61.20;;;;;;5029316;28;19982;-73
2023/08/25 05:18:46;;;;;;;;;;;24.20;61.10;;;;;;5032608;28;19917;-74
2023/08/25 05:21:13;;;;;;;;;;;24.50;61.10;;;;;;5033477;28;20391;-74
2023/08/25 05:23:42;;;;;;;;;;;24.80;60.90;;;;;;5033790;28;20067;-74
2023/08/25 05:26:08;;;;;;;;;;;25.10;60.80;;;;;;5033603;28;20280;-73
2023/08/25 05:28:33;;;;;;;;;;;25.40;60.60;;;;;;5029842;28;19924;-74
2023/08/25 05:30:59;;;;;;;;;;;25.70;60.20;;;;;;5031805;28;19915;-74
2023/08/25 05:33:24;;;;;;;;;;;26.00;60.10;;;;;;5031738;28;19964;-74
2023/08/25 05:35:50;;;;;;;;;;;26.40;59.70;;;;;;5027280;28;19913;-75
2023/08/25 05:38:15;;;;;;;;;;;26.70;59.10;;;;;;5031792;28;20399;-75
2023/08/25 05:40:41;;;;;;;;;;;27.00;58.50;;;;;;5031881;28;19913;-75
2023/08/25 05:43:06;;;;;;;;;;;27.30;57.80;;;;;;5031848;28;19917;-74
2023/08/25 05:45:32;;;;;;;;;;;27.70;57.20;;;;;;5033142;28;19920;-74
2023/08/25 05:47:58;;;;;;;;;;;28.00;56.70;;;;;;5031693;28;19924;-74
2023/08/25 05:50:23;;;;;;;;;;;28.30;56.00;;;;;;5029729;28;19928;-74
2023/08/25 05:52:49;;;;;;;;;;;28.60;55.40;;;;;;5033452;28;19919;-74
2023/08/25 05:55:15;;;;;;;;;;;28.80;54.90;;;;;;5028462;28;20004;-74
2023/08/25 05:57:41;;;;;;;;;;;29.20;54.00;;;;;;5032745;28;19924;-75
2023/08/25 06:00:06;;;;;;;;;;;29.50;53.20;;;;;;5033494;28;20373;-75
2023/08/25 06:02:32;;;;;;;;;;;29.80;52.60;;;;;;5031617;28;20330;-75
2023/08/25 06:04:58;;;;;;;;;;;30.10;52.30;;;;;;5032361;28;19921;-74
2023/08/25 06:07:23;;;;;;;;;;;30.40;51.50;;;;;;5030953;28;19917;-74
2023/08/25 06:09:51;;;;;;;;;;;30.70;50.70;;;;;;5033162;28;21559;-73
2023/08/25 06:12:16;;;;;;;;;;;31.00;49.70;;;;;;5032081;28;19960;-74
2023/08/25 06:14:42;;;;;;;;;;;31.20;48.70;;;;;;5032111;28;20022;-74
2023/08/25 06:17:07;;;;;;;;;;;31.40;48.30;;;;;;5032919;28;19917;-75
2023/08/25 06:19:35;;;;;;;;;;;31.70;47.40;;;;;;5031672;28;19964;-74
2023/08/25 06:22:00;;;;;;;;;;;32.00;47.10;;;;;;5032953;28;20355;-67
2023/08/25 06:24:25;;;;;;;;;;;32.20;46.40;;;;;;5027207;28;20028;-68
2023/08/25 06:26:51;;;;;;;;;;;32.50;46.10;;;;;;5021589;28;19936;-68
2023/08/25 06:29:17;;;;;;;;;;;32.80;45.90;;;;;;5031926;28;19918;-68
2023/08/25 06:31:42;;;;;;;;;;;33.20;45.50;;;;;;5031694;28;20411;-68
2023/08/25 06:34:08;;;;;;;;;;;33.50;45.00;;;;;;5030014;28;19971;-68
2023/08/25 06:36:33;;;;;;;;;;;33.80;43.70;;;;;;5032035;28;19963;-68
2023/08/25 06:38:59;;;;;;;;;;;34.10;43.50;;;;;;5032285;28;20348;-68
2023/08/25 06:41:25;;;;;;;;;;;34.40;42.80;;;;;;5032279;28;19914;-69
2023/08/25 06:43:50;;;;;;;;;;;34.70;41.90;;;;;;5031481;28;20355;-68
2023/08/25 06:46:16;;;;;;;;;;;34.90;41.10;;;;;;5031261;28;20012;-68
2023/08/25 06:48:41;;;;;;;;;;;35.20;41.30;;;;;;5028735;28;20391;-68
2023/08/25 06:51:07;;;;;;;;;;;35.50;40.80;;;;;;5031657;28;19947;-68
2023/08/25 06:53:32;;;;;;;;;;;35.80;40.00;;;;;;5029833;28;19914;-68
2023/08/25 06:55:58;;;;;;;;;;;36.10;38.90;;;;;;5032005;28;19917;-68
2023/08/25 06:58:23;;;;;;;;;;;36.30;39.30;;;;;;5031870;28;20016;-67
2023/08/25 07:00:50;;;;;;;;;;;36.70;39.50;;;;;;5031658;28;19920;-67
2023/08/25 07:03:16;;;;;;;;;;;37.10;39.30;;;;;;5030671;28;19928;-68
2023/08/25 07:05:41;;;;;;;;;;;37.60;38.80;;;;;;5031787;28;19913;-67
2023/08/25 07:08:07;;;;;;;;;;;38.00;37.70;;;;;;5028601;28;19921;-69
2023/08/25 07:10:33;;;;;;;;;;;38.30;36.70;;;;;;5030729;28;20016;-69
2023/08/25 07:12:58;;;;;;;;;;;38.70;36.50;;;;;;5028456;28;19915;-67
2023/08/25 07:15:24;;;;;;;;;;;39.10;36.30;;;;;;5028549;28;19944;-66
2023/08/25 07:17:49;;;;;;;;;;;39.50;35.50;;;;;;5027716;28;19967;-67
2023/08/25 07:20:14;;;;;;;;;;;39.80;34.70;;;;;;5029541;28;19917;-68
2023/08/25 07:22:40;;;;;;;;;;;40.10;34.40;;;;;;5030697;28;19924;-67
2023/08/25 07:25:06;;;;;;;;;;;40.30;34.00;;;;;;5032076;28;19921;-67
2023/08/25 07:27:31;;;;;;;;;;;40.40;33.00;;;;;;5029771;28;19917;-67
2023/08/25 07:29:57;;;;;;;;;;;40.40;32.40;;;;;;5028893;28;20072;-67
2023/08/25 07:32:23;;;;;;;;;;;40.40;32.10;;;;;;5030260;28;19917;-75
2023/08/25 07:34:48;;;;;;;;;;;40.50;32.30;;;;;;5023328;28;19917;-75
2023/08/25 07:37:14;;;;;;;;;;;40.60;32.40;;;;;;5019988;28;20657;-74
2023/08/25 07:39:40;;;;;;;;;;;40.80;32.10;;;;;;5015936;28;20005;-75
2023/08/25 07:42:06;;;;;;;;;;;41.10;31.90;;;;;;5031358;28;19921;-75
2023/08/25 07:44:31;;;;;;;;;;;41.40;31.60;;;;;;5029963;28;20269;-75
2023/08/25 07:46:57;;;;;;;;;;;41.70;31.30;;;;;;5030078;28;20292;-75
2023/08/25 07:49:22;;;;;;;;;;;42.10;30.70;;;;;;5030962;28;20427;-75
2023/08/25 07:51:48;;;;;;;;;;;42.30;30.10;;;;;;5023064;28;19929;-75
2023/08/25 07:54:13;;;;;;;;;;;42.60;30.00;;;;;;5011297;28;19920;-75
2023/08/25 07:56:39;;;;;;;;;;;42.90;29.90;;;;;;5022665;28;20396;-76
2023/08/25 07:59:05;;;;;;;;;;;43.10;29.30;;;;;;5030221;28;19948;-75
2023/08/25 08:01:31;;;;;;;;;;;43.30;28.40;;;;;;5030178;28;20326;-75
2023/08/25 08:03:56;;;;;;;;;;;43.30;28.20;;;;;;5031081;28;19970;-75
2023/08/25 08:06:22;;;;;;;;;;;43.20;27.20;;;;;;5029262;28;20295;-75
2023/08/25 08:08:48;;;;;;;;;;;42.80;27.60;;;;;;5031260;28;19999;-74
2023/08/25 08:11:13;;;;;;;;;;;42.80;28.00;;;;;;5020108;28;19917;-75
2023/08/25 08:13:39;;;;;;;;;;;42.80;27.80;;;;;;5031122;28;19920;-75
2023/08/25 08:16:05;;;;;;;;;;;42.90;27.70;;;;;;5033458;28;19913;-75
2023/08/25 08:18:30;;;;;;;;;;;43.00;27.50;;;;;;5032546;28;19975;-76
2023/08/25 08:20:56;;;;;;;;;;;42.90;27.50;;;;;;5034615;28;19921;-76
2023/08/25 08:23:21;;;;;;;;;;;42.70;27.50;;;;;;5031052;28;19920;-76
2023/08/25 08:25:47;;;;;;;;;;;42.70;27.70;;;;;;5034487;28;19917;-75
2023/08/25 08:28:13;;;;;;;;;;;42.70;27.80;;;;;;5032766;28;20230;-75
2023/08/25 08:30:38;;;;;;;;;;;42.50;27.70;;;;;;5033851;28;19921;-75
2023/08/25 08:33:05;;;;;;;;;;;42.20;27.60;;;;;;5030172;28;19956;-74
2023/08/25 08:35:30;;;;;;;;;;;41.90;27.90;;;;;;5033600;28;19917;-75
2023/08/25 08:37:55;;;;;;;;;;;41.60;28.10;;;;;;5031973;28;20445;-75
2023/08/25 08:40:21;;;;;;;;;;;41.20;28.20;;;;;;5034157;28;20270;-76
2023/08/25 08:42:47;;;;;;;;;;;40.80;28.60;;;;;;5033004;28;20254;-75
2023/08/25 08:45:15;;;;;;;;;;;40.50;28.90;;;;;;5034259;28;20285;-76
2023/08/25 08:47:41;;;;;;;;;;;40.30;29.30;;;;;;5034049;28;19947;-75
2023/08/25 08:50:07;;;;;;;;;;;40.00;29.50;;;;;;5030740;28;20388;-75
2023/08/25 08:52:33;;;;;;;;;;;39.70;29.90;;;;;;5034034;28;20392;-76
2023/08/25 08:54:59;;;;;;;;;;;39.40;30.20;;;;;;5034462;28;20268;-75
2023/08/25 08:57:28;;;;;;;;;;;39.10;30.50;;;;;;5033464;28;19925;-75
2023/08/25 08:59:58;;;;;;;;;;;38.60;30.90;;;;;;5024192;28;19914;-71
2023/08/25 09:02:23;;;;;;;;;;;38.20;31.20;;;;;;5026269;28;19917;-76
2023/08/25 09:04:50;;;;;;;;;;;37.80;31.70;;;;;;5034125;28;20300;-73
2023/08/25 09:07:17;;;;;;;;;;;37.40;32.20;;;;;;5034108;28;19918;-76
2023/08/25 09:09:44;;;;;;;;;;;37.10;32.60;;;;;;5034148;28;19909;-73
2023/08/25 09:12:09;;;;;;;;;;;36.40;36.40;;;;;;5033353;28;20307;-74
2023/08/25 09:14:34;;;;;;;;;;;35.50;40.30;;;;;;5033178;28;20012;-74
2023/08/25 09:17:00;;;;;;;;;;;34.60;43.50;;;;;;5035057;28;19917;-76
2023/08/25 09:19:33;;;;;;;;;;;33.70;45.30;;;;;;5034870;28;19913;-75
2023/08/25 09:22:02;;;;;;;;;;;33.00;47.50;;;;;;5033566;28;20392;-75
2023/08/25 09:24:29;;;;;;;;;;;32.20;49.30;;;;;;5033794;28;20012;-77
2023/08/25 09:26:54;;;;;;;;;;;31.50;50.70;;;;;;5031912;28;20488;-75
2023/08/25 09:29:22;;;;;;;;;;;31.00;52.20;;;;;;5033170;28;20000;-75
2023/08/25 09:31:48;;;;;;;;;;;30.50;53.70;;;;;;5033631;28;19953;-75
2023/08/25 09:34:14;;;;;;;;;;;30.10;54.50;;;;;;5031168;28;20373;-76
2023/08/25 09:36:55;;;;;;;;;;;29.80;55.40;;;;;;5033498;28;19920;-76
2023/08/25 09:39:22;;;;;;;;;;;29.40;56.20;;;;;;5032791;28;20337;-76
2023/08/25 09:41:48;;;;;;;;;;;29.20;57.20;;;;;;5033475;28;19918;-76
2023/08/25 09:44:14;;;;;;;;;;;29.00;57.80;;;;;;5032660;28;19924;-76
2023/08/25 09:46:39;;;;;;;;;;;28.80;58.30;;;;;;5033219;28;19917;-76
2023/08/25 09:49:06;;;;;;;;;;;28.50;59.50;;;;;;5033519;28;19924;-75
2023/08/25 09:51:36;;;;;;;;;;;28.30;59.90;;;;;;5026402;28;19921;-67
2023/08/25 09:54:04;;;;;;;;;;;28.20;60.30;;;;;;5013457;28;20385;-67
2023/08/25 09:56:30;;;;;;;;;;;28.00;60.50;;;;;;5023408;28;20007;-66
2023/08/25 09:58:55;;;;;;;;;;;27.80;60.90;;;;;;5032196;28;20420;-67
2023/08/25 10:01:21;;;;;;;;;;;27.60;61.60;;;;;;5030899;28;19917;-71
2023/08/25 10:03:49;;;;;;;;;;;27.40;62.20;;;;;;5030059;28;19956;-72
2023/08/25 10:06:15;;;;;;;;;;;27.10;63.00;;;;;;5027415;28;19925;-69
2023/08/25 10:08:42;;;;;;;;;;;26.90;63.80;;;;;;5032144;28;20349;-67
2023/08/25 10:11:08;;;;;;;;;;;26.70;64.60;;;;;;5032678;28;19967;-68
2023/08/25 10:13:34;;;;;;;;;;;26.50;65.70;;;;;;5029954;28;19921;-67
2023/08/25 10:16:02;;;;;;;;;;;26.30;66.60;;;;;;5032544;28;19921;-67
2023/08/25 10:18:30;;;;;;;;;;;26.20;67.30;;;;;;5029730;28;20291;-67
2023/08/25 10:20:55;;;;;;;;;;;26.10;67.50;;;;;;5032429;28;20327;-67
2023/08/25 10:23:21;;;;;;;;;;;26.00;67.50;;;;;;5031652;28;19921;-68
2023/08/25 10:25:47;;;;;;;;;;;25.80;67.80;;;;;;5032294;28;19920;-67
2023/08/25 10:28:13;;;;;;;;;;;25.70;67.90;;;;;;5031550;28;19917;-67
2023/08/25 10:30:38;;;;;;;;;;;25.50;68.00;;;;;;5032110;28;19928;-67
2023/08/25 10:33:10;;;;;;;;;;;25.30;68.70;;;;;;5032335;28;19916;-67
2023/08/25 10:35:36;;;;;;;;;;;25.20;68.90;;;;;;5031423;28;19923;-67
2023/08/25 10:38:01;;;;;;;;;;;25.10;69.10;;;;;;5031899;28;19909;-68
2023/08/25 10:40:38;;;;;;;;;;;25.00;69.30;;;;;;5029912;28;19917;-68
2023/08/25 10:43:04;;;;;;;;;;;24.80;69.70;;;;;;5029270;28;19920;-66
2023/08/25 10:45:33;;;;;;;;;;;24.80;70.00;;;;;;5032067;28;19921;-67
2023/08/25 10:47:58;;;;;;;;;;;24.70;69.80;;;;;;5023654;28;19922;-67
2023/08/25 10:50:24;;;;;;;;;;;24.60;70.00;;;;;;5010754;28;19979;-67
2023/08/25 10:52:55;;;;;;;;;;;24.50;70.40;;;;;;5012095;28;19916;-66
2023/08/25 10:55:32;;;;;;;;;;;24.50;70.70;;;;;;5030365;28;19924;-67
2023/08/25 10:58:06;;;;;;;;;;;24.40;71.20;;;;;;5031681;28;19921;-67
2023/08/25 11:00:33;;;;;;;;;;;24.40;71.20;;;;;;5031025;28;19917;-67
2023/08/25 11:02:59;;;;;;;;;;;24.40;71.40;;;;;;5031613;28;20280;-71
2023/08/25 11:05:33;;;;;;;;;;;24.40;71.70;;;;;;5029177;28;19924;-72
2023/08/25 11:08:05;;;;;;;;;;;24.50;72.40;;;;;;5031515;28;19924;-72
2023/08/25 11:10:35;;;;;;;;;;;24.60;72.60;;;;;;5030903;28;20284;-71
2023/08/25 11:13:06;;;;;;;;;;;24.70;72.60;;;;;;5030528;28;19909;-71
2023/08/25 11:15:34;;;;;;;;;;;24.80;72.50;;;;;;5029619;28;20380;-72
2023/08/25 11:17:59;;;;;;;;;;;24.80;72.10;;;;;;5027959;28;19913;-71
2023/08/25 11:20:25;;;;;;;;;;;24.80;71.90;;;;;;5030584;28;19940;-71
2023/08/25 11:22:50;;;;;;;;;;;24.80;71.80;;;;;;5031423;28;20056;-72
2023/08/25 11:25:16;;;;;;;;;;;24.90;71.80;;;;;;5030245;28;19962;-72
2023/08/25 11:27:41;;;;;;;;;;;24.90;71.60;;;;;;5031628;28;19916;-73
2023/08/25 11:30:10;;;;;;;;;;;25.00;71.50;;;;;;5031558;28;19936;-72
2023/08/25 11:32:36;;;;;;;;;;;25.00;71.90;;;;;;5031487;28;19913;-72
2023/08/25 11:35:04;;;;;;;;;;;25.10;72.30;;;;;;5030460;28;19971;-73
2023/08/25 11:37:30;;;;;;;;;;;25.20;72.20;;;;;;5031022;28;19928;-73
2023/08/25 11:39:55;;;;;;;;;;;25.30;72.10;;;;;;5030846;28;20345;-73
2023/08/25 11:42:24;;;;;;;;;;;25.30;71.90;;;;;;5030263;28;19913;-72
2023/08/25 11:44:52;;;;;;;;;;;25.30;71.50;;;;;;5031610;28;19917;-71
2023/08/25 11:47:21;;;;;;;;;;;25.20;71.70;;;;;;5030579;28;19917;-71
2023/08/25 11:49:50;;;;;;;;;;;25.20;71.90;;;;;;5032890;28;20323;-71
2023/08/25 11:52:15;;;;;;;;;;;25.20;71.50;;;;;;5034559;28;19921;-71
2023/08/25 11:54:45;;;;;;;;;;;25.20;71.20;;;;;;5029005;28;19979;-70
2023/08/25 11:57:10;;;;;;;;;;;25.10;71.20;;;;;;5028059;28;19960;-69
2023/08/25 11:59:40;;;;;;;;;;;25.00;71.20;;;;;;5015065;28;19960;-70
2023/08/25 12:02:05;;;;;;;;;;;24.90;71.10;;;;;;5017750;28;19925;-70
2023/08/25 12:04:31;;;;;;;;;;;24.80;71.20;;;;;;5012875;28;19917;-71
2023/08/25 12:06:57;;;;;;;;;;;24.80;71.30;;;;;;5021528;28;19964;-71
2023/08/25 12:09:23;;;;;;;;;;;24.80;71.40;;;;;;5033447;28;19913;-71
2023/08/25 12:11:55;;;;;;;;;;;24.70;71.40;;;;;;5024580;28;20293;-66
2023/08/25 12:14:24;;;;;;;;;;;24.70;71.30;;;;;;5021022;28;19920;-65
2023/08/25 12:16:50;;;;;;;;;;;24.70;71.40;;;;;;5024151;28;20380;-66
2023/08/25 12:19:15;;;;;;;;;;;24.60;71.20;;;;;;5025173;28;20003;-67
2023/08/25 12:21:41;;;;;;;;;;;24.60;71.10;;;;;;5025931;28;19914;-67
2023/08/25 12:24:06;;;;;;;;;;;24.50;71.20;;;;;;5011352;28;20015;-67
2023/08/25 12:26:31;;;;;;;;;;;24.50;71.30;;;;;;5024825;28;19917;-67
2023/08/25 12:28:57;;;;;;;;;;;24.40;71.50;;;;;;5028692;28;19920;-66
2023/08/25 12:31:23;;;;;;;;;;;24.40;71.80;;;;;;5028355;28;20020;-66
2023/08/25 12:33:48;;;;;;;;;;;24.50;72.20;;;;;;5010783;28;19922;-66
2023/08/25 12:36:13;;;;;;;;;;;24.50;72.50;;;;;;5014326;28;19920;-66
2023/08/25 12:38:39;;;;;;;;;;;24.60;72.50;;;;;;5032574;28;19920;-67
2023/08/25 12:41:04;;;;;;;;;;;24.80;72.80;;;;;;5030678;28;20052;-66
2023/08/25 12:43:30;;;;;;;;;;;24.90;72.90;;;;;;5029956;28;19929;-67
2023/08/25 12:45:56;;;;;;;;;;;25.10;72.80;;;;;;5032399;28;19957;-66
2023/08/25 12:48:21;;;;;;;;;;;25.20;72.90;;;;;;5030013;28;19928;-66
2023/08/25 12:50:47;;;;;;;;;;;25.30;72.70;;;;;;5016776;28;19925;-66
2023/08/25 12:53:12;;;;;;;;;;;25.40;72.50;;;;;;5011628;28;19922;-67
2023/08/25 12:55:38;;;;;;;;;;;25.50;72.20;;;;;;5024048;28;19936;-66
2023/08/25 12:58:03;;;;;;;;;;;25.50;72.00;;;;;;5014011;28;19916;-66
2023/08/25 13:00:29;;;;;;;;;;;25.60;72.20;;;;;;5029059;28;19975;-67
2023/08/25 13:02:54;;;;;;;;;;;25.70;72.20;;;;;;5024162;28;19917;-67
2023/08/25 13:05:20;;;;;;;;;;;25.90;72.90;;;;;;5020206;28;19921;-69
2023/08/25 13:07:45;;;;;;;;;;;26.30;73.50;;;;;;5016236;28;19909;-66
2023/08/25 13:10:11;;;;;;;;;;;26.70;73.40;;;;;;5027734;28;19963;-70
2023/08/25 13:12:36;;;;;;;;;;;26.90;72.80;;;;;;5032672;28;20361;-70
2023/08/25 13:15:03;;;;;;;;;;;27.00;72.60;;;;;;5024848;28;19913;-68
2023/08/25 13:17:28;;;;;;;;;;;27.10;71.80;;;;;;5026270;28;20024;-69
2023/08/25 13:19:54;;;;;;;;;;;27.20;71.30;;;;;;5027677;28;19960;-70
2023/08/25 13:22:20;;;;;;;;;;;27.20;71.00;;;;;;5023888;28;19921;-72
2023/08/25 13:24:46;;;;;;;;;;;27.20;71.10;;;;;;5017807;28;19971;-72
2023/08/25 13:27:11;;;;;;;;;;;27.40;71.00;;;;;;5028114;28;19924;-71
2023/08/25 13:29:37;;;;;;;;;;;27.50;71.10;;;;;;5034218;28;19924;-72
2023/08/25 13:32:03;;;;;;;;;;;27.60;71.20;;;;;;5023935;28;19917;-71
2023/08/25 13:34:28;;;;;;;;;;;27.70;70.90;;;;;;5013680;28;19917;-72
2023/08/25 13:36:53;;;;;;;;;;;27.70;71.20;;;;;;5023141;28;19921;-70
2023/08/25 13:39:19;;;;;;;;;;;27.80;71.20;;;;;;5029285;28;19913;-72
2023/08/25 13:41:44;;;;;;;;;;;28.10;71.30;;;;;;5030196;28;20276;-72
2023/08/25 13:44:10;;;;;;;;;;;28.20;71.40;;;;;;5019241;28;19917;-72
2023/08/25 13:46:35;;;;;;;;;;;28.30;71.00;;;;;;5030519;28;20262;-70
2023/08/25 13:49:01;;;;;;;;;;;28.40;70.70;;;;;;5028652;28;20271;-72
2023/08/25 13:51:27;;;;;;;;;;;28.40;70.60;;;;;;5032800;28;19964;-72
2023/08/25 13:53:53;;;;;;;;;;;28.30;70.60;;;;;;5023410;28;19928;-70
2023/08/25 13:56:18;;;;;;;;;;;28.30;70.40;;;;;;5012847;28;19926;-71
2023/08/25 13:58:43;;;;;;;;;;;28.40;70.30;;;;;;5018440;28;19922;-72
2023/08/25 14:01:09;;;;;;;;;;;28.50;70.30;;;;;;5030027;28;19925;-72
2023/08/25 14:03:34;;;;;;;;;;;28.50;70.30;;;;;;5009750;28;19933;-73
2023/08/25 14:06:00;;;;;;;;;;;28.50;70.20;;;;;;5028207;28;19948;-72
2023/08/25 14:08:26;;;;;;;;;;;28.50;70.70;;;;;;5011938;28;19996;-72
2023/08/25 14:10:52;;;;;;;;;;;28.50;70.00;;;;;;5022850;28;19918;-72